Sea Queen IIa — WDH2007 — position and weather

sailwx.info

Track history (hours):
 
Tides and Currents Weather Stations Pressure Air Temp Water Temp Dewpoint Dewpoint Depression Visibility Wind Speed Wind Dir Waves Ship Positions

Sea Queen IIa

Owner: NGUYEN, THOAI V, SAN JOSE, CA. More information available from US FCC via Universal Licensing System and Coast Guard Vessel Documentation Center.

Last reported at 2018-Feb-17 06:46 UTC. Time now 2018-Feb-19 15:55 UTC.
Position N 37°37' W 123°08'.

Length 26 m.

Type: Fishing. MMSI: 367593450.

Date/timePositionNaut miles runAvg speedWind from/ knotsBaromVisibWave heightAir tempDewpointWater temp
2018-Feb-17 06:46N 37°37' W 123°08'2 6.6
2018-Feb-17 06:27N 37°38' W 123°06'3 7.1
2018-Feb-17 06:00N 37°39' W 123°02'4 7.7
2018-Feb-17 05:30N 37°40' W 122°57'4 7.2
2018-Feb-17 04:59N 37°40' W 122°52'3 6.9
2018-Feb-17 04:30N 37°42' W 122°49'5 6.6
2018-Feb-17 03:42N 37°44' W 122°43'2 6.7
2018-Feb-17 03:25N 37°45' W 122°40'3 6.8
2018-Feb-17 03:00N 37°46' W 122°37'4 7.5
2018-Feb-17 02:28N 37°47' W 122°32'4 8.7
2018-Feb-17 02:00N 37°49' W 122°28'2 3.1
2018-Feb-17 01:16N 37°49' W 122°25'0 0.0
2018-Feb-17 00:46N 37°49' W 122°25'0 0.0
2018-Feb-17 00:28N 37°49' W 122°25'0 0.0
2018-Feb-16 23:58N 37°49' W 122°25'0 0.0
2018-Feb-16 23:28N 37°49' W 122°25'0 0.0
2018-Feb-16 22:58N 37°49' W 122°25'0 0.0
2018-Feb-16 22:22N 37°49' W 122°25'0 0.0
2018-Feb-16 21:55N 37°49' W 122°25'0 0.0
2018-Feb-16 21:07N 37°49' W 122°25'0 0.0
2018-Feb-16 20:46N 37°49' W 122°25'0 0.0
2018-Feb-16 20:28N 37°49' W 122°25'0 0.0
2018-Feb-16 19:58N 37°49' W 122°25'0 0.0
2018-Feb-16 19:25N 37°49' W 122°25'0 0.0
2018-Feb-16 18:58N 37°49' W 122°25'0 0.0
2018-Feb-16 18:28N 37°49' W 122°25'0 0.0
2018-Feb-16 17:58N 37°49' W 122°25'0 0.0
2018-Feb-16 17:28N 37°49' W 122°25'0 0.0
2018-Feb-16 16:49N 37°49' W 122°25'0 0.0
2018-Feb-16 16:22N 37°49' W 122°25'0 0.0
2018-Feb-16 15:49N 37°49' W 122°25'0 0.0
2018-Feb-16 15:13N 37°49' W 122°25'0 0.0
2018-Feb-16 14:55N 37°49' W 122°25'0 0.0
2018-Feb-16 14:28N 37°49' W 122°25'0 0.0
2018-Feb-16 13:58N 37°49' W 122°25'0 0.0
2018-Feb-16 13:25N 37°49' W 122°25'0 0.0
2018-Feb-16 12:40N 37°49' W 122°25'0 0.0
2018-Feb-16 12:25N 37°49' W 122°25'0 0.0
2018-Feb-16 11:58N 37°49' W 122°25'0 0.0
2018-Feb-16 11:19N 37°49' W 122°25'0 0.0
2018-Feb-16 10:52N 37°49' W 122°25'0 0.0
2018-Feb-16 10:13N 37°49' W 122°25'0 0.0
2018-Feb-16 09:58N 37°49' W 122°25'0 0.0
2018-Feb-16 09:28N 37°49' W 122°25'0 0.0
2018-Feb-16 08:55N 37°49' W 122°25'0 0.0
2018-Feb-16 08:28N 37°49' W 122°25'0 0.0
2018-Feb-16 07:55N 37°49' W 122°25'0 0.0
2018-Feb-16 07:25N 37°49' W 122°25'0 0.0
2018-Feb-16 05:52N 37°49' W 122°25'0 0.0
2018-Feb-16 05:28N 37°49' W 122°25'0 0.0
2018-Feb-16 04:55N 37°49' W 122°25'0 0.0
2018-Feb-16 04:25N 37°49' W 122°25'0 0.0
2018-Feb-16 03:58N 37°49' W 122°25'0 0.0
2018-Feb-16 03:07N 37°49' W 122°25'0 0.0
2018-Feb-16 02:49N 37°49' W 122°25'0 0.0
2018-Feb-16 02:28N 37°49' W 122°25'0 0.0
2018-Feb-16 01:16N 37°49' W 122°25'0 0.0
2018-Feb-16 00:58N 37°49' W 122°25'0 0.0
2018-Feb-16 00:31N 37°49' W 122°25'0 0.0
2018-Feb-16 00:00N 37°49' W 122°25'0 0.0
2018-Feb-15 23:16N 37°49' W 122°25'0 0.0
2018-Feb-15 23:01N 37°49' W 122°25'0 0.0
2018-Feb-15 22:22N 37°49' W 122°25'0 0.0
2018-Feb-15 21:58N 37°49' W 122°25'0 0.0
2018-Feb-15 21:28N 37°49' W 122°25'0 0.0
2018-Feb-15 20:55N 37°49' W 122°25'0 0.0
2018-Feb-15 20:28N 37°49' W 122°25'0 0.0
2018-Feb-15 20:01N 37°49' W 122°25'0 0.0
2018-Feb-15 19:28N 37°49' W 122°25'0 0.0
2018-Feb-15 18:55N 37°49' W 122°25'0 0.0
2018-Feb-15 18:12N 37°49' W 122°25'0 0.0
2018-Feb-15 17:55N 37°49' W 122°25'0 0.0
2018-Feb-15 17:28N 37°49' W 122°25'0 0.0
2018-Feb-15 16:58N 37°49' W 122°25'0 0.0
2018-Feb-15 16:22N 37°49' W 122°25'0 0.0
2018-Feb-15 15:58N 37°49' W 122°25'0 0.0
2018-Feb-15 15:31N 37°49' W 122°25'0 0.0
2018-Feb-15 15:01N 37°49' W 122°25'0 0.0
2018-Feb-15 14:22N 37°49' W 122°25'0 0.0
2018-Feb-15 13:58N 37°49' W 122°25'0 0.1
2018-Feb-15 13:28N 37°49' W 122°25'0 0.1
2018-Feb-15 12:58N 37°49' W 122°25'0 0.0
2018-Feb-15 12:28N 37°49' W 122°25'0 0.0
2018-Feb-15 11:55N 37°49' W 122°25'0 0.0
2018-Feb-15 11:28N 37°49' W 122°25'0 0.0
2018-Feb-15 10:52N 37°49' W 122°25'0 0.0
2018-Feb-15 10:25N 37°49' W 122°25'0 0.0
2018-Feb-15 09:58N 37°49' W 122°25'0 0.0
2018-Feb-15 09:22N 37°49' W 122°25'0 0.0
2018-Feb-15 08:58N 37°49' W 122°25'0 0.0
2018-Feb-15 08:25N 37°49' W 122°25'0 0.0
2018-Feb-14 20:08N 37°49' W 122°25'0 0.0
2018-Feb-14 19:50N 37°49' W 122°25'0 0.0
2018-Feb-14 19:26N 37°49' W 122°25'0 0.0
2018-Feb-14 18:59N 37°49' W 122°25'0 0.0
2018-Feb-14 18:29N 37°49' W 122°25'0 0.0
2018-Feb-14 17:59N 37°49' W 122°25'0 0.0
2018-Feb-14 17:26N 37°49' W 122°25'0 0.0
2018-Feb-14 16:59N 37°49' W 122°25'0 0.0
2018-Feb-14 16:29N 37°49' W 122°25'0 0.0
2018-Feb-14 15:59N 37°49' W 122°25'0 0.0
2018-Feb-14 14:53N 37°49' W 122°25'0 0.0
2018-Feb-14 14:29N 37°49' W 122°25'0 0.0
2018-Feb-14 13:56N 37°49' W 122°25'0 0.0
2018-Feb-14 13:26N 37°49' W 122°25'0 0.0
2018-Feb-14 12:59N 37°49' W 122°25'0 0.0
2018-Feb-14 12:29N 37°49' W 122°25'0 0.0
2018-Feb-14 11:53N 37°49' W 122°25'0 0.0
2018-Feb-14 11:29N 37°49' W 122°25'0 0.0
2018-Feb-14 10:53N 37°49' W 122°25'0 0.0
2018-Feb-14 10:20N 37°49' W 122°25'0 0.0
2018-Feb-14 09:50N 37°49' W 122°25'0 0.0
2018-Feb-14 09:26N 37°49' W 122°25'0 0.0
2018-Feb-14 08:59N 37°49' W 122°25'0 0.0
2018-Feb-14 08:29N 37°49' W 122°25'0 0.0
2018-Feb-14 07:59N 37°49' W 122°25'0 0.0
2018-Feb-14 07:29N 37°49' W 122°25'0 0.0
2018-Feb-14 06:56N 37°49' W 122°25'0 0.0
2018-Feb-14 06:29N 37°49' W 122°25'0 0.0
2018-Feb-14 05:59N 37°49' W 122°25'0 0.0
2018-Feb-14 05:26N 37°49' W 122°25'0 0.0
2018-Feb-14 04:56N 37°49' W 122°25'0 0.0
2018-Feb-14 04:29N 37°49' W 122°25'0 0.0
2018-Feb-14 04:00N 37°49' W 122°25'0 0.0
2018-Feb-14 03:30N 37°49' W 122°25'0 0.0
2018-Feb-14 03:00N 37°49' W 122°25'0 0.0
2018-Feb-14 02:30N 37°49' W 122°25'0 0.0
2018-Feb-14 01:57N 37°49' W 122°25'0 0.0
2018-Feb-14 01:30N 37°49' W 122°25'0 0.0
2018-Feb-14 00:57N 37°49' W 122°25'0 0.0
2018-Feb-14 00:27N 37°49' W 122°25'0 0.0
2018-Feb-13 23:54N 37°49' W 122°25'0 0.0
2018-Feb-13 23:30N 37°49' W 122°25'0 0.0
2018-Feb-13 22:29N 37°49' W 122°25'0 0.0
2018-Feb-13 21:56N 37°49' W 122°25'0 0.0
2018-Feb-13 21:29N 37°49' W 122°25'0 0.0
2018-Feb-13 20:56N 37°49' W 122°25'0 0.0
2018-Feb-13 20:29N 37°49' W 122°25'0 0.0
2018-Feb-13 19:53N 37°49' W 122°25'0 0.0
2018-Feb-13 19:29N 37°49' W 122°25'0 0.0
2018-Feb-13 18:59N 37°49' W 122°25'0 0.0
2018-Feb-13 18:29N 37°49' W 122°25'0 0.0
2018-Feb-13 17:59N 37°49' W 122°25'0 0.0
2018-Feb-13 17:29N 37°49' W 122°25'0 0.0
2018-Feb-13 16:56N 37°49' W 122°25'0 0.0
2018-Feb-13 16:23N 37°49' W 122°25'0 0.0
2018-Feb-13 15:59N 37°49' W 122°25'0 0.0
2018-Feb-13 15:29N 37°49' W 122°25'0 0.0
2018-Feb-13 14:59N 37°49' W 122°25'0 0.0
2018-Feb-13 11:32N 37°49' W 122°25'0 0.0
2018-Feb-13 11:23N 37°49' W 122°25'0 0.0
2018-Feb-13 10:59N 37°49' W 122°25'0 0.0
2018-Feb-13 10:29N 37°49' W 122°25'0 0.0
2018-Feb-13 09:56N 37°49' W 122°25'1 1.2
2018-Feb-13 09:29N 37°49' W 122°26'3 5.6
2018-Feb-13 09:00N 37°49' W 122°29'3 5.7
2018-Feb-13 08:30N 37°47' W 122°32'3 0.7
2018-Feb-13 04:31N 37°46' W 122°35'0 6.1
2018-Feb-13 04:29N 37°46' W 122°35'3 6.7
2018-Feb-13 04:00N 37°48' W 122°32'3 5.9
2018-Feb-13 03:30N 37°49' W 122°28'3 4.8
2018-Feb-13 02:58N 37°49' W 122°25'0 0.1
2018-Feb-13 02:29N 37°49' W 122°25'0 0.0
2018-Feb-13 01:59N 37°49' W 122°25'0 0.0
2018-Feb-13 01:29N 37°49' W 122°25'0 0.0
2018-Feb-13 00:59N 37°49' W 122°25'0 0.0
2018-Feb-13 00:14N 37°49' W 122°25'0 0.0
2018-Feb-12 23:57N 37°49' W 122°25'0 0.0
2018-Feb-12 23:24N 37°49' W 122°25'0 0.0
2018-Feb-12 22:51N 37°49' W 122°25'0 0.0
2018-Feb-12 22:24N 37°49' W 122°25'1 3.2
2018-Feb-12 22:00N 37°50' W 122°25'4 8.8
2018-Feb-12 21:30N 37°54' W 122°25'3 5.0
2018-Feb-12 21:00N 37°54' W 122°22'1 2.2
2018-Feb-12 20:30N 37°55' W 122°22'0 0.0
2018-Feb-12 19:57N 37°55' W 122°22'0 0.0
2018-Feb-12 19:30N 37°55' W 122°22'0 0.0
2018-Feb-12 19:00N 37°55' W 122°22'0 0.0
2018-Feb-12 18:27N 37°55' W 122°22'0 0.0
2018-Feb-12 17:57N 37°55' W 122°22'0 0.0
2018-Feb-12 17:30N 37°55' W 122°22'0 0.0
2018-Feb-12 17:00N 37°55' W 122°22'0 0.0
2018-Feb-12 16:30N 37°55' W 122°22'1 2.3
2018-Feb-12 16:00N 37°54' W 122°23'2 4.1
2018-Feb-12 15:31N 37°53' W 122°25'4 7.5
2018-Feb-12 14:59N 37°49' W 122°25'1 1.6
2018-Feb-12 14:29N 37°49' W 122°25'0 0.0
2018-Feb-12 13:59N 37°49' W 122°25'0 0.0
2018-Feb-12 13:29N 37°49' W 122°25'0 0.0
2018-Feb-12 12:59N 37°49' W 122°25'0 0.0
2018-Feb-12 12:29N 37°49' W 122°25'0 0.0
2018-Feb-12 11:59N 37°49' W 122°25'0 0.0
2018-Feb-12 11:29N 37°49' W 122°25'0 0.0
2018-Feb-12 10:53N 37°49' W 122°25'0 0.0
2018-Feb-12 10:29N 37°49' W 122°25'0 0.0
2018-Feb-12 09:59N 37°49' W 122°25'0 0.0
2018-Feb-12 09:23N 37°49' W 122°25'0 0.0
2018-Feb-12 08:56N 37°49' W 122°25'0 0.0
2018-Feb-12 08:29N 37°49' W 122°25'0 0.0
2018-Feb-12 07:59N 37°49' W 122°25'0 0.0
2018-Feb-12 07:29N 37°49' W 122°25'0 0.0
2018-Feb-12 06:59N 37°49' W 122°25'0 0.0
2018-Feb-12 06:11N 37°49' W 122°25'0 0.0
2018-Feb-12 05:59N 37°49' W 122°25'0 0.0
2018-Feb-12 05:29N 37°49' W 122°25'0 0.0
2018-Feb-12 04:59N 37°49' W 122°25'0 0.0
2018-Feb-12 04:29N 37°49' W 122°25'0 0.0
2018-Feb-12 03:59N 37°49' W 122°25'0 0.0
2018-Feb-12 03:29N 37°49' W 122°25'0 0.0
2018-Feb-12 02:59N 37°49' W 122°25'0 0.0
2018-Feb-12 02:26N 37°49' W 122°25'0 0.0
2018-Feb-12 01:59N 37°49' W 122°25'0 0.0
2018-Feb-12 01:29N 37°49' W 122°25'0 0.0
2018-Feb-12 00:59N 37°49' W 122°25'0 0.0
2018-Feb-12 00:29N 37°49' W 122°25'0 0.0
2018-Feb-11 23:59N 37°49' W 122°25'0 0.0
2018-Feb-11 23:29N 37°49' W 122°25'0 0.0
2018-Feb-11 22:59N 37°49' W 122°25'0 0.0
2018-Feb-11 22:26N 37°49' W 122°25'0 0.0
2018-Feb-11 21:59N 37°49' W 122°25'  
2018-Feb-08 01:27N 37°49' W 122°25'0 0.0
2018-Feb-08 01:00N 37°49' W 122°25'0 0.0
2018-Feb-08 00:27N 37°49' W 122°25'0 0.0
2018-Feb-07 23:54N 37°49' W 122°25'0 0.0
2018-Feb-07 23:24N 37°49' W 122°25'0 0.0
2018-Feb-07 22:54N 37°49' W 122°25'0 0.0
2018-Feb-07 22:30N 37°49' W 122°25'0 0.0
2018-Feb-07 22:00N 37°49' W 122°25'0 0.0
2018-Feb-07 21:24N 37°49' W 122°25'0 0.0
2018-Feb-07 09:21N 37°49' W 122°25'0 0.0
2018-Feb-07 08:54N 37°49' W 122°25'0 0.0
2018-Feb-07 08:24N 37°49' W 122°25'0 0.0
2018-Feb-07 07:57N 37°49' W 122°25'0 0.0
2018-Feb-07 07:30N 37°49' W 122°25'0 0.0
2018-Feb-07 06:57N 37°49' W 122°25'  
Track history (hours):
 
Tides and Currents Weather Stations Pressure Air Temp Water Temp Dewpoint Dewpoint Depression Visibility Wind Speed Wind Dir Waves Ship Positions

Sea Queen IIa

Owner: NGUYEN, THOAI V, SAN JOSE, CA. More information available from US FCC via Universal Licensing System and Coast Guard Vessel Documentation Center.

Last reported at 2018-Feb-17 06:46 UTC. Time now 2018-Feb-19 15:55 UTC.
Position N 37°37' W 123°08'.

Length 26 m.

Type: Fishing. MMSI: 367593450.

Date/timePositionNaut miles runAvg speedWind from/ knotsBaromVisibWave heightAir tempDewpointWater temp
2018-Feb-17 06:46N 37°37' W 123°08'2 6.6
2018-Feb-17 06:27N 37°38' W 123°06'3 7.1
2018-Feb-17 06:00N 37°39' W 123°02'4 7.7
2018-Feb-17 05:30N 37°40' W 122°57'4 7.2
2018-Feb-17 04:59N 37°40' W 122°52'3 6.9
2018-Feb-17 04:30N 37°42' W 122°49'5 6.6
2018-Feb-17 03:42N 37°44' W 122°43'2 6.7
2018-Feb-17 03:25N 37°45' W 122°40'3 6.8
2018-Feb-17 03:00N 37°46' W 122°37'4 7.5
2018-Feb-17 02:28N 37°47' W 122°32'4 8.7
2018-Feb-17 02:00N 37°49' W 122°28'2 3.1
2018-Feb-17 01:16N 37°49' W 122°25'0 0.0
2018-Feb-17 00:46N 37°49' W 122°25'0 0.0
2018-Feb-17 00:28N 37°49' W 122°25'0 0.0
2018-Feb-16 23:58N 37°49' W 122°25'0 0.0
2018-Feb-16 23:28N 37°49' W 122°25'0 0.0
2018-Feb-16 22:58N 37°49' W 122°25'0 0.0
2018-Feb-16 22:22N 37°49' W 122°25'0 0.0
2018-Feb-16 21:55N 37°49' W 122°25'0 0.0
2018-Feb-16 21:07N 37°49' W 122°25'0 0.0
2018-Feb-16 20:46N 37°49' W 122°25'0 0.0
2018-Feb-16 20:28N 37°49' W 122°25'0 0.0
2018-Feb-16 19:58N 37°49' W 122°25'0 0.0
2018-Feb-16 19:25N 37°49' W 122°25'0 0.0
2018-Feb-16 18:58N 37°49' W 122°25'0 0.0
2018-Feb-16 18:28N 37°49' W 122°25'0 0.0
2018-Feb-16 17:58N 37°49' W 122°25'0 0.0
2018-Feb-16 17:28N 37°49' W 122°25'0 0.0
2018-Feb-16 16:49N 37°49' W 122°25'0 0.0
2018-Feb-16 16:22N 37°49' W 122°25'0 0.0
2018-Feb-16 15:49N 37°49' W 122°25'0 0.0
2018-Feb-16 15:13N 37°49' W 122°25'0 0.0
2018-Feb-16 14:55N 37°49' W 122°25'0 0.0
2018-Feb-16 14:28N 37°49' W 122°25'0 0.0
2018-Feb-16 13:58N 37°49' W 122°25'0 0.0
2018-Feb-16 13:25N 37°49' W 122°25'0 0.0
2018-Feb-16 12:40N 37°49' W 122°25'0 0.0
2018-Feb-16 12:25N 37°49' W 122°25'0 0.0
2018-Feb-16 11:58N 37°49' W 122°25'0 0.0
2018-Feb-16 11:19N 37°49' W 122°25'0 0.0
2018-Feb-16 10:52N 37°49' W 122°25'0 0.0
2018-Feb-16 10:13N 37°49' W 122°25'0 0.0
2018-Feb-16 09:58N 37°49' W 122°25'0 0.0
2018-Feb-16 09:28N 37°49' W 122°25'0 0.0
2018-Feb-16 08:55N 37°49' W 122°25'0 0.0
2018-Feb-16 08:28N 37°49' W 122°25'0 0.0
2018-Feb-16 07:55N 37°49' W 122°25'0 0.0
2018-Feb-16 07:25N 37°49' W 122°25'0 0.0
2018-Feb-16 05:52N 37°49' W 122°25'0 0.0
2018-Feb-16 05:28N 37°49' W 122°25'0 0.0
2018-Feb-16 04:55N 37°49' W 122°25'0 0.0
2018-Feb-16 04:25N 37°49' W 122°25'0 0.0
2018-Feb-16 03:58N 37°49' W 122°25'0 0.0
2018-Feb-16 03:07N 37°49' W 122°25'0 0.0
2018-Feb-16 02:49N 37°49' W 122°25'0 0.0
2018-Feb-16 02:28N 37°49' W 122°25'0 0.0
2018-Feb-16 01:16N 37°49' W 122°25'0 0.0
2018-Feb-16 00:58N 37°49' W 122°25'0 0.0
2018-Feb-16 00:31N 37°49' W 122°25'0 0.0
2018-Feb-16 00:00N 37°49' W 122°25'0 0.0
2018-Feb-15 23:16N 37°49' W 122°25'0 0.0
2018-Feb-15 23:01N 37°49' W 122°25'0 0.0
2018-Feb-15 22:22N 37°49' W 122°25'0 0.0
2018-Feb-15 21:58N 37°49' W 122°25'0 0.0
2018-Feb-15 21:28N 37°49' W 122°25'0 0.0
2018-Feb-15 20:55N 37°49' W 122°25'0 0.0
2018-Feb-15 20:28N 37°49' W 122°25'0 0.0
2018-Feb-15 20:01N 37°49' W 122°25'0 0.0
2018-Feb-15 19:28N 37°49' W 122°25'0 0.0
2018-Feb-15 18:55N 37°49' W 122°25'0 0.0
2018-Feb-15 18:12N 37°49' W 122°25'0 0.0
2018-Feb-15 17:55N 37°49' W 122°25'0 0.0
2018-Feb-15 17:28N 37°49' W 122°25'0 0.0
2018-Feb-15 16:58N 37°49' W 122°25'0 0.0
2018-Feb-15 16:22N 37°49' W 122°25'0 0.0
2018-Feb-15 15:58N 37°49' W 122°25'0 0.0
2018-Feb-15 15:31N 37°49' W 122°25'0 0.0
2018-Feb-15 15:01N 37°49' W 122°25'0 0.0
2018-Feb-15 14:22N 37°49' W 122°25'0 0.0
2018-Feb-15 13:58N 37°49' W 122°25'0 0.1
2018-Feb-15 13:28N 37°49' W 122°25'0 0.1
2018-Feb-15 12:58N 37°49' W 122°25'0 0.0
2018-Feb-15 12:28N 37°49' W 122°25'0 0.0
2018-Feb-15 11:55N 37°49' W 122°25'0 0.0
2018-Feb-15 11:28N 37°49' W 122°25'0 0.0
2018-Feb-15 10:52N 37°49' W 122°25'0 0.0
2018-Feb-15 10:25N 37°49' W 122°25'0 0.0
2018-Feb-15 09:58N 37°49' W 122°25'0 0.0
2018-Feb-15 09:22N 37°49' W 122°25'0 0.0
2018-Feb-15 08:58N 37°49' W 122°25'0 0.0
2018-Feb-15 08:25N 37°49' W 122°25'0 0.0
2018-Feb-14 20:08N 37°49' W 122°25'0 0.0
2018-Feb-14 19:50N 37°49' W 122°25'0 0.0
2018-Feb-14 19:26N 37°49' W 122°25'0 0.0
2018-Feb-14 18:59N 37°49' W 122°25'0 0.0
2018-Feb-14 18:29N 37°49' W 122°25'0 0.0
2018-Feb-14 17:59N 37°49' W 122°25'0 0.0
2018-Feb-14 17:26N 37°49' W 122°25'0 0.0
2018-Feb-14 16:59N 37°49' W 122°25'0 0.0
2018-Feb-14 16:29N 37°49' W 122°25'0 0.0
2018-Feb-14 15:59N 37°49' W 122°25'0 0.0
2018-Feb-14 14:53N 37°49' W 122°25'0 0.0
2018-Feb-14 14:29N 37°49' W 122°25'0 0.0
2018-Feb-14 13:56N 37°49' W 122°25'0 0.0
2018-Feb-14 13:26N 37°49' W 122°25'0 0.0
2018-Feb-14 12:59N 37°49' W 122°25'0 0.0
2018-Feb-14 12:29N 37°49' W 122°25'0 0.0
2018-Feb-14 11:53N 37°49' W 122°25'0 0.0
2018-Feb-14 11:29N 37°49' W 122°25'0 0.0
2018-Feb-14 10:53N 37°49' W 122°25'0 0.0
2018-Feb-14 10:20N 37°49' W 122°25'0 0.0
2018-Feb-14 09:50N 37°49' W 122°25'0 0.0
2018-Feb-14 09:26N 37°49' W 122°25'0 0.0
2018-Feb-14 08:59N 37°49' W 122°25'0 0.0
2018-Feb-14 08:29N 37°49' W 122°25'0 0.0
2018-Feb-14 07:59N 37°49' W 122°25'0 0.0
2018-Feb-14 07:29N 37°49' W 122°25'0 0.0
2018-Feb-14 06:56N 37°49' W 122°25'0 0.0
2018-Feb-14 06:29N 37°49' W 122°25'0 0.0
2018-Feb-14 05:59N 37°49' W 122°25'0 0.0
2018-Feb-14 05:26N 37°49' W 122°25'0 0.0
2018-Feb-14 04:56N 37°49' W 122°25'0 0.0
2018-Feb-14 04:29N 37°49' W 122°25'0 0.0
2018-Feb-14 04:00N 37°49' W 122°25'0 0.0
2018-Feb-14 03:30N 37°49' W 122°25'0 0.0
2018-Feb-14 03:00N 37°49' W 122°25'0 0.0
2018-Feb-14 02:30N 37°49' W 122°25'0 0.0
2018-Feb-14 01:57N 37°49' W 122°25'0 0.0
2018-Feb-14 01:30N 37°49' W 122°25'0 0.0
2018-Feb-14 00:57N 37°49' W 122°25'0 0.0
2018-Feb-14 00:27N 37°49' W 122°25'0 0.0
2018-Feb-13 23:54N 37°49' W 122°25'0 0.0
2018-Feb-13 23:30N 37°49' W 122°25'0 0.0
2018-Feb-13 22:29N 37°49' W 122°25'0 0.0
2018-Feb-13 21:56N 37°49' W 122°25'0 0.0
2018-Feb-13 21:29N 37°49' W 122°25'0 0.0
2018-Feb-13 20:56N 37°49' W 122°25'0 0.0
2018-Feb-13 20:29N 37°49' W 122°25'0 0.0
2018-Feb-13 19:53N 37°49' W 122°25'0 0.0
2018-Feb-13 19:29N 37°49' W 122°25'0 0.0
2018-Feb-13 18:59N 37°49' W 122°25'0 0.0
2018-Feb-13 18:29N 37°49' W 122°25'0 0.0
2018-Feb-13 17:59N 37°49' W 122°25'0 0.0
2018-Feb-13 17:29N 37°49' W 122°25'0 0.0
2018-Feb-13 16:56N 37°49' W 122°25'0 0.0
2018-Feb-13 16:23N 37°49' W 122°25'0 0.0
2018-Feb-13 15:59N 37°49' W 122°25'0 0.0
2018-Feb-13 15:29N 37°49' W 122°25'0 0.0
2018-Feb-13 14:59N 37°49' W 122°25'0 0.0
2018-Feb-13 11:32N 37°49' W 122°25'0 0.0
2018-Feb-13 11:23N 37°49' W 122°25'0 0.0
2018-Feb-13 10:59N 37°49' W 122°25'0 0.0
2018-Feb-13 10:29N 37°49' W 122°25'0 0.0
2018-Feb-13 09:56N 37°49' W 122°25'1 1.2
2018-Feb-13 09:29N 37°49' W 122°26'3 5.6
2018-Feb-13 09:00N 37°49' W 122°29'3 5.7
2018-Feb-13 08:30N 37°47' W 122°32'3 0.7
2018-Feb-13 04:31N 37°46' W 122°35'0 6.1
2018-Feb-13 04:29N 37°46' W 122°35'3 6.7
2018-Feb-13 04:00N 37°48' W 122°32'3 5.9
2018-Feb-13 03:30N 37°49' W 122°28'3 4.8
2018-Feb-13 02:58N 37°49' W 122°25'0 0.1
2018-Feb-13 02:29N 37°49' W 122°25'0 0.0
2018-Feb-13 01:59N 37°49' W 122°25'0 0.0
2018-Feb-13 01:29N 37°49' W 122°25'0 0.0
2018-Feb-13 00:59N 37°49' W 122°25'0 0.0
2018-Feb-13 00:14N 37°49' W 122°25'0 0.0
2018-Feb-12 23:57N 37°49' W 122°25'0 0.0
2018-Feb-12 23:24N 37°49' W 122°25'0 0.0
2018-Feb-12 22:51N 37°49' W 122°25'0 0.0
2018-Feb-12 22:24N 37°49' W 122°25'1 3.2
2018-Feb-12 22:00N 37°50' W 122°25'4 8.8
2018-Feb-12 21:30N 37°54' W 122°25'3 5.0
2018-Feb-12 21:00N 37°54' W 122°22'1 2.2
2018-Feb-12 20:30N 37°55' W 122°22'0 0.0
2018-Feb-12 19:57N 37°55' W 122°22'0 0.0
2018-Feb-12 19:30N 37°55' W 122°22'0 0.0
2018-Feb-12 19:00N 37°55' W 122°22'0 0.0
2018-Feb-12 18:27N 37°55' W 122°22'0 0.0
2018-Feb-12 17:57N 37°55' W 122°22'0 0.0
2018-Feb-12 17:30N 37°55' W 122°22'0 0.0
2018-Feb-12 17:00N 37°55' W 122°22'0 0.0
2018-Feb-12 16:30N 37°55' W 122°22'1 2.3
2018-Feb-12 16:00N 37°54' W 122°23'2 4.1
2018-Feb-12 15:31N 37°53' W 122°25'4 7.5
2018-Feb-12 14:59N 37°49' W 122°25'1 1.6
2018-Feb-12 14:29N 37°49' W 122°25'0 0.0
2018-Feb-12 13:59N 37°49' W 122°25'0 0.0
2018-Feb-12 13:29N 37°49' W 122°25'0 0.0
2018-Feb-12 12:59N 37°49' W 122°25'0 0.0
2018-Feb-12 12:29N 37°49' W 122°25'0 0.0
2018-Feb-12 11:59N 37°49' W 122°25'0 0.0
2018-Feb-12 11:29N 37°49' W 122°25'0 0.0
2018-Feb-12 10:53N 37°49' W 122°25'0 0.0
2018-Feb-12 10:29N 37°49' W 122°25'0 0.0
2018-Feb-12 09:59N 37°49' W 122°25'0 0.0
2018-Feb-12 09:23N 37°49' W 122°25'0 0.0
2018-Feb-12 08:56N 37°49' W 122°25'0 0.0
2018-Feb-12 08:29N 37°49' W 122°25'0 0.0
2018-Feb-12 07:59N 37°49' W 122°25'0 0.0
2018-Feb-12 07:29N 37°49' W 122°25'0 0.0
2018-Feb-12 06:59N 37°49' W 122°25'0 0.0
2018-Feb-12 06:11N 37°49' W 122°25'0 0.0
2018-Feb-12 05:59N 37°49' W 122°25'0 0.0
2018-Feb-12 05:29N 37°49' W 122°25'0 0.0
2018-Feb-12 04:59N 37°49' W 122°25'0 0.0
2018-Feb-12 04:29N 37°49' W 122°25'0 0.0
2018-Feb-12 03:59N 37°49' W 122°25'0 0.0
2018-Feb-12 03:29N 37°49' W 122°25'0 0.0
2018-Feb-12 02:59N 37°49' W 122°25'0 0.0
2018-Feb-12 02:26N 37°49' W 122°25'0 0.0
2018-Feb-12 01:59N 37°49' W 122°25'0 0.0
2018-Feb-12 01:29N 37°49' W 122°25'0 0.0
2018-Feb-12 00:59N 37°49' W 122°25'0 0.0
2018-Feb-12 00:29N 37°49' W 122°25'0 0.0
2018-Feb-11 23:59N 37°49' W 122°25'0 0.0
2018-Feb-11 23:29N 37°49' W 122°25'0 0.0
2018-Feb-11 22:59N 37°49' W 122°25'0 0.0
2018-Feb-11 22:26N 37°49' W 122°25'0 0.0
2018-Feb-11 21:59N 37°49' W 122°25'  
2018-Feb-08 01:27N 37°49' W 122°25'0 0.0
2018-Feb-08 01:00N 37°49' W 122°25'0 0.0
2018-Feb-08 00:27N 37°49' W 122°25'0 0.0
2018-Feb-07 23:54N 37°49' W 122°25'0 0.0
2018-Feb-07 23:24N 37°49' W 122°25'0 0.0
2018-Feb-07 22:54N 37°49' W 122°25'0 0.0
2018-Feb-07 22:30N 37°49' W 122°25'0 0.0
2018-Feb-07 22:00N 37°49' W 122°25'0 0.0
2018-Feb-07 21:24N 37°49' W 122°25'0 0.0
2018-Feb-07 09:21N 37°49' W 122°25'0 0.0
2018-Feb-07 08:54N 37°49' W 122°25'0 0.0
2018-Feb-07 08:24N 37°49' W 122°25'0 0.0
2018-Feb-07 07:57N 37°49' W 122°25'0 0.0
2018-Feb-07 07:30N 37°49' W 122°25'0 0.0
2018-Feb-07 06:57N 37°49' W 122°25'  

Dump ship's entire track history